Weather observations for the past three days for
Alma, Gratiot Community Airport
Imperial (Metric)
Date Time (edt) Wind (mph) Vis. (mi.) Weather Sky Cond. Temperature (ºF) Relative Humidity Wind Chill (°F) Heat Index (°F) Pressure Precipitation (in)
Air Dwpt 6 hour altimeter (in) sea level (mb) 1 hr 3 hr 6 hr
Max. Min.
07 14:16 W 17 G 25 10.00 Mostly Cloudy BKN065 53.6 30.2 41% 29.88 0.0
07 13:55 W 12 10.00 Mostly Cloudy BKN060 BKN075 50 28.4 52 38.8 43% 46 29.88 0.0
07 13:35 W 13 10.00 Overcast BKN060 OVC075 51.8 30.2 44% 29.89 0.0
07 13:15 W 13 G 22 10.00 Overcast SCT060 OVC070 48.2 26.6 43% 43 29.9 0.0
07 12:55 W 9 10.00 Overcast SCT060 OVC070 48.2 28.4 46% 45 29.91 0.0
07 12:35 W 16 G 20 10.00 Overcast FEW047 OVC060 46.4 28.4 50% 40 29.92 0.0
07 12:15 W 13 10.00 Overcast FEW049 OVC060 46.4 28.4 50% 41 29.92 0.0
07 11:56 W 13 G 16 10.00 Overcast OVC060 48.2 28.4 46% 43 29.91 0.0
07 11:35 W 8 10.00 Overcast OVC050 46.4 28.4 50% 43 29.91 0.0
07 11:15 W 12 10.00 Overcast OVC050 48.2 28.4 46% 44 29.91 0.0
07 10:55 W 14 10.00 Overcast FEW041 SCT050 OVC060 48.2 28.4 46% 43 29.91 0.0
07 10:35 W 13 10.00 Mostly Cloudy SCT041 BKN050 48.2 30.2 50% 43 29.91 0.0
07 10:15 Vrbl 5 10.00 Fair CLR 48.2 32 54% 47 29.91 0.0
07 09:55 W 6 10.00 A Few Clouds FEW060 46.4 32 57% 44 29.92 0.0
07 09:36 W 5 10.00 Mostly Cloudy BKN060 42.8 32 66% 41 29.92 0.0
07 09:15 W 5 10.00 Mostly Cloudy BKN060 42.8 32 66% 41 29.92 0.0
07 08:55 W 5 10.00 Overcast OVC060 41 32 70% 38 29.92 0.0
07 08:35 W 3 10.00 Overcast OVC060 41 30.2 66% 29.91 0.0
07 08:15 NW 3 10.00 Overcast OVC060 39.2 30.2 70% 29.91 0.0
07 07:55 W 5 10.00 Mostly Cloudy BKN060 39.2 32 43.7 34.7 75% 36 29.91 0.0
07 07:35 W 5 10.00 A Few Clouds FEW070 37.4 33.8 87% 34 29.9 0.0
07 07:15 NW 2 10.00 Mostly Cloudy BKN070 37.4 32 81% 29.9 0.0
07 06:55 N 1 10.00 Mostly Cloudy BKN070 37.4 33.8 87% 29.89 0.0
07 06:35 NW 3 10.00 Overcast OVC070 37.4 32 81% 29.89 0.0
07 06:15 NW 3 10.00 Overcast OVC080 37.4 32 81% 29.89 0.0
07 05:55 NE 2 10.00 Overcast OVC080 37.4 33.8 87% 29.89 0.0
07 05:35 Calm 10.00 Overcast OVC080 39.2 32 75% 29.89 0.0
07 05:15 NW 2 10.00 Overcast OVC080 37.4 32 81% 29.89 0.0
07 04:56 N 5 10.00 Mostly Cloudy BKN090 35.6 32 87% 32 29.89 0.0
07 04:36 N 3 10.00 Overcast OVC090 37.4 32 81% 29.89 0.0
07 04:15 N 1 10.00 Mostly Cloudy BKN090 37.4 33.8 87% 29.9 0.0
07 03:55 W 2 10.00 A Few Clouds FEW090 39.2 33.8 81% 29.89 0.0
07 03:35 NW 3 10.00 Mostly Cloudy FEW070 BKN090 39.2 33.8 81% 29.9 0.0
07 03:15 S 2 10.00 Overcast SCT070 OVC090 41 35.6 81% 29.89 0.0
07 02:55 Calm 10.00 Overcast FEW070 OVC090 41 33.8 76% 29.9 0.0
07 02:35 NW 2 10.00 Overcast BKN070 OVC090 42.8 33.8 71% 29.9 0.0
07 02:16 N 2 10.00 Overcast BKN070 OVC100 42.8 32 66% 29.9 0.0
07 01:55 NW 3 10.00 Overcast BKN070 OVC100 42.8 30.2 50.7 42.4 61% 29.91 0.0
07 01:35 NW 3 10.00 Overcast SCT070 OVC100 42.8 32 66% 29.91 0.0
07 01:15 W 5 10.00 Overcast OVC100 42.8 32 66% 41 29.91 0.0
07 00:55 W 5 10.00 Overcast OVC100 42.8 32 66% 41 29.91 0.0
07 00:35 W 6 10.00 Overcast OVC100 42.8 32 66% 40 29.91 0.0
07 00:15 W 6 10.00 Overcast OVC100 42.8 32 66% 40 29.91 0.0
06 23:56 W 5 10.00 Overcast SCT085 OVC110 44.6 32 61% 43 29.91 0.0
06 23:35 W 7 10.00 Overcast OVC110 44.6 30.2 57% 41 29.91 0.0
06 23:15 NW 8 10.00 Overcast OVC100 46.4 28.4 50% 43 29.91 0.0
06 22:55 W 6 10.00 Overcast OVC110 46.4 30.2 53% 44 29.91 0.0
06 22:35 W 6 10.00 Overcast OVC100 46.4 30.2 53% 44 29.91 0.0
06 22:15 W 8 10.00 Overcast OVC100 48.2 28.4 46% 45 29.9 0.0
06 21:55 W 6 10.00 Overcast OVC090 46.4 30.2 53% 44 29.9 0.0
06 21:36 W 7 10.00 Overcast SCT070 OVC090 48.2 28.4 46% 46 29.9 0.0
06 21:15 NW 12 10.00 Overcast OVC070 50 26.6 40% 46 29.9 0.0
06 20:55 W 13 10.00 Overcast BKN070 OVC090 50 28.4 43% 46 29.89 0.0
06 20:35 W 7 10.00 Overcast SCT080 OVC090 50 26.6 40% 48 29.88 0.0
06 20:15 W 9 10.00 Overcast BKN080 OVC090 50 26.6 40% 47 29.88 0.0
06 19:55 W 7 10.00 Overcast OVC080 50 26.6 53.6 49.8 40% 48 29.88 0.0
06 19:35 W 7 10.00 Overcast OVC080 50 26.6 40% 48 29.88 0.0
06 19:16 W 10 G 18 10.00 Overcast OVC080 51.8 26.6 38% 29.87 0.0
06 18:55 W 13 10.00 Overcast OVC080 51.8 24.8 35% 29.87 0.0
06 18:35 W 13 G 16 10.00 Overcast OVC080 51.8 24.8 35% 29.87 0.0
06 18:15 W 8 10.00 Overcast OVC080 51.8 26.6 38% 29.87 0.0
06 17:55 W 14 10.00 Overcast FEW070 OVC080 53.6 26.6 35% 29.88 0.0
06 17:35 W 10 10.00 Overcast OVC070 51.8 26.6 38% 29.87 0.0
06 17:15 W 10 10.00 Overcast BKN070 OVC080 51.8 28.4 41% 29.87 0.0
06 16:56 W 9 10.00 Overcast BKN070 OVC080 51.8 28.4 41% 29.87 0.0
06 16:35 W 8 10.00 Overcast BKN070 OVC080 51.8 28.4 41% 29.88 0.0
06 16:15 W 12 10.00 Overcast OVC080 51.8 26.6 38% 29.88 0.0
06 15:55 W 12 10.00 Overcast OVC070 51.8 28.4 41% 29.88 0.0
06 15:35 W 8 10.00 Overcast OVC070 51.8 28.4 41% 29.89 0.0
06 15:15 NW 10 G 16 10.00 Overcast OVC065 51.8 28.4 41% 29.89 0.0
06 14:55 W 8 10.00 Overcast FEW065 OVC075 51.8 28.4 41% 29.89 0.0
06 14:36 W 14 10.00 Overcast OVC075 51.8 28.4 41% 29.89 0.0
06 14:15 Vrbl 3 10.00 Overcast SCT060 OVC070 51.8 26.6 38% 29.89 0.0
06 13:55 W 6 10.00 Overcast BKN060 OVC070 50 26.6 51.8 39.7 40% 48 29.9 0.0
06 13:35 Vrbl 7 10.00 Overcast OVC070 51.8 28.4 41% 29.9 0.0
06 13:15 Vrbl 3 10.00 Overcast SCT050 OVC060 50 30.2 47% 29.91 0.0
06 12:55 Vrbl 2 10.00 Overcast OVC060 50 30.2 47% 29.91 0.0
06 12:35 Vrbl 7 10.00 Overcast SCT050 OVC060 48.2 30.2 50% 46 29.91 0.0
06 12:16 N 7 10.00 Mostly Cloudy BKN060 50 28.4 43% 48 29.91 0.0
06 11:55 NW 10 10.00 Overcast SCT041 SCT046 OVC060 48.2 28.4 46% 44 29.92 0.0
06 11:35 Vrbl 2 10.00 Partly Cloudy SCT039 SCT046 48.2 32 54% 29.92 0.0
06 11:15 SW 2 10.00 Partly Cloudy SCT034 48.2 33.8 58% 29.92 0.0
06 10:55 E 5 10.00 Mostly Cloudy BKN032 46.4 32 57% 45 29.91 0.0
06 10:35 Vrbl 2 10.00 Partly Cloudy SCT030 46.4 32 57% 29.91 0.0
06 10:15 Vrbl 3 10.00 Partly Cloudy SCT028 44.6 32 61% 29.91 0.0
06 09:56 Vrbl 6 10.00 Mostly Cloudy BKN026 44.6 32 61% 42 29.9 0.0
06 09:35 E 3 8.00 Mostly Cloudy BKN024 42.8 32 66% 29.91 0.0
06 09:15 NE 5 10.00 Mostly Cloudy BKN024 41 30.2 66% 38 29.91 0.0
06 08:55 NE 7 10.00 Mostly Cloudy BKN024 41 30.2 66% 37 29.9 0.0
06 08:35 NE 8 10.00 Overcast OVC022 41 30.2 66% 36 29.9 0.0
06 08:15 NE 10 10.00 Overcast OVC018 41 32 70% 35 29.88 0.0
06 07:55 NE 8 10.00 Overcast OVC018 39.2 32 43.9 36.9 75% 34 29.87 0.0
06 07:36 NE 9 10.00 Mostly Cloudy BKN018 39.2 32 75% 34 29.86 0.0
06 07:15 N 6 10.00 A Few Clouds FEW018 37.4 32 81% 33 29.86 0.0
06 06:55 N 9 10.00 Fair CLR 37.4 32 81% 31 29.86 0.0
06 06:35 N 8 10.00 Fair CLR 37.4 32 81% 32 29.84 0.0
06 06:15 N 6 10.00 Fair CLR 37.4 28.4 70% 33 29.84 0.0
06 05:55 NW 6 10.00 Fair CLR 39.2 28.4 65% 36 29.82 0.0
06 05:35 NW 6 10.00 Fair CLR 39.2 28.4 65% 36 29.81 0.0
06 05:16 NW 6 10.00 Fair CLR 41 28.4 61% 38 29.81 0.0
06 04:55 NW 5 10.00 Fair CLR 41 30.2 66% 38 29.81 0.0
06 04:35 NW 6 10.00 Fair CLR 42.8 28.4 57% 40 29.81 0.0
06 04:15 NW 7 10.00 Fair CLR 42.8 28.4 57% 39 29.81 0.0
06 03:55 NW 7 10.00 Fair CLR 41 30.2 66% 37 29.8 0.0
06 03:35 W 6 10.00 Fair CLR 42.8 30.2 61% 40 29.8 0.0
06 03:15 NW 6 10.00 Fair CLR 42.8 28.4 57% 40 29.8 0.0
06 02:56 NW 7 10.00 Fair CLR 42.8 30.2 61% 39 29.8 0.0
06 02:35 NW 6 10.00 Fair CLR 42.8 30.2 61% 40 29.81 0.0
06 02:15 NW 6 10.00 Fair CLR 44.6 28.4 53% 42 29.81 0.0
06 01:55 W 8 10.00 Fair CLR 42.8 30.2 51.8 41.7 61% 39 29.82 0.0
06 01:35 NW 6 10.00 Fair CLR 41 30.2 66% 38 29.8 0.0
06 01:15 NW 5 10.00 Fair CLR 42.8 30.2 61% 41 29.81 0.0
06 00:55 NW 5 10.00 Fair CLR 44.6 28.4 53% 43 29.8 0.0
06 00:36 NW 5 10.00 Fair CLR 44.6 28.4 53% 43 29.8 0.0
06 00:15 NW 6 10.00 Fair CLR 44.6 28.4 53% 42 29.79 0.0
05 23:55 NW 6 10.00 Fair CLR 44.6 28.4 53% 42 29.79 0.0
05 23:35 NW 7 10.00 Fair CLR 44.6 30.2 57% 41 29.8 0.0
05 23:15 NW 6 10.00 Fair CLR 44.6 32 61% 42 29.79 0.0
05 22:55 W 6 10.00 Fair CLR 44.6 32 61% 42 29.79 0.0
05 22:35 NW 5 10.00 Fair CLR 44.6 30.2 57% 43 29.78 0.0
05 22:16 NW 5 10.00 Fair CLR 46.4 30.2 53% 45 29.78 0.0
05 21:55 NW 5 10.00 Fair CLR 46.4 30.2 53% 45 29.78 0.0
05 21:35 NW 5 10.00 Fair CLR 48.2 30.2 50% 47 29.77 0.0
05 21:15 NW 5 10.00 Fair CLR 48.2 30.2 50% 47 29.76 0.0
05 20:55 W 5 10.00 Fair CLR 50 30.2 47% 49 29.76 0.0
05 20:35 W 6 10.00 Fair CLR 50 30.2 47% 48 29.75 0.0
05 20:15 W 9 10.00 Fair CLR 51.8 28.4 41% 29.75 0.0
05 19:56 W 10 10.00 Fair CLR 51.8 28.4 41% 29.75 0.0
05 19:35 W 13 10.00 Fair CLR 51.8 28.4 41% 29.74 0.0
05 19:15 W 13 10.00 Fair CLR 53.6 28.4 38% 29.74 0.0
05 18:55 W 14 10.00 Fair CLR 53.6 28.4 38% 29.74 0.0
05 18:35 W 13 10.00 Fair CLR 53.6 26.6 35% 29.73 0.0
05 18:15 W 14 G 20 10.00 Fair CLR 55.4 28.4 36% 29.74 0.0
05 17:55 W 15 10.00 Fair CLR 55.4 28.4 36% 29.73 0.0
05 17:36 W 13 G 20 10.00 Fair CLR 55.4 28.4 36% 29.73 0.0
05 17:15 W 10 G 20 10.00 Fair CLR 57.2 26.6 31% 29.73 0.0
05 16:55 W 13 G 18 10.00 Fair CLR 57.2 24.8 29% 29.73 0.0
05 16:35 W 18 10.00 Fair CLR 57.2 26.6 31% 29.73 0.0
05 16:15 W 13 G 18 10.00 Fair CLR 59 26.6 29% 29.72 0.0
05 15:55 W 16 G 21 10.00 Fair CLR 59 26.6 29% 29.72 0.0
05 15:35 W 13 G 24 10.00 Fair CLR 59 26.6 29% 29.72 0.0
05 15:16 W 14 G 21 10.00 Fair CLR 59 26.6 29% 29.71 0.0
05 14:55 NW 15 G 23 10.00 Fair CLR 57.2 24.8 29% 29.71 0.0
05 14:35 W 9 G 25 10.00 Fair CLR 57.2 28.4 33% 29.72 0.0
05 14:15 W 14 G 24 10.00 Fair CLR 59 28.4 31% 29.72 0.0
05 13:55 W 15 G 23 10.00 Fair CLR 57.2 28.4 58.6 48.4 33% 29.71 0.0
05 13:35 W 16 G 24 10.00 Fair CLR 57.2 28.4 33% 29.7 0.0
05 13:15 W 17 G 22 10.00 A Few Clouds FEW055 57.2 32 39% 29.71 0.0
05 12:56 W 13 G 23 10.00 Fair CLR 57.2 33.8 41% 29.71 0.0
05 12:35 W 15 G 23 10.00 Partly Cloudy SCT048 SCT050 57.2 33.8 41% 29.7 0.0
05 12:15 W 10 G 20 10.00 Mostly Cloudy SCT047 BKN050 55.4 35.6 47% 29.71 0.0
05 11:55 W 17 G 26 10.00 Partly Cloudy SCT047 SCT055 57.2 37.4 48% 29.72 0.0
05 11:35 W 13 G 18 10.00 Partly Cloudy SCT045 55.4 35.6 47% 29.72 0.0
05 11:15 W 10 10.00 Fair CLR 53.6 35.6 51% 29.72 0.0
05 10:55 W 8 10.00 Fair CLR 53.6 35.6 51% 29.71 0.0
05 10:36 W 12 10.00 Fair CLR 51.8 35.6 54% 29.71 0.0
05 10:15 W 7 10.00 A Few Clouds FEW044 51.8 35.6 54% 29.7 0.0
05 09:55 W 6 10.00 Mostly Cloudy BKN044 51.8 35.6 54% 29.71 0.0
05 09:35 NW 5 10.00 Overcast OVC042 51.8 35.6 54% 29.7 0.0
05 09:15 Vrbl 3 10.00 Overcast OVC040 50 35.6 58% 29.7 0.0
05 08:55 W 3 10.00 Mostly Cloudy BKN038 51.8 35.6 54% 29.67 0.0
05 08:35 N 7 10.00 Fair CLR 50 35.6 58% 48 29.65 0.0
05 08:16 NW 5 10.00 Fair CLR 50 39.2 67% 49 29.66 0.0
05 07:55 NW 7 10.00 Fair CLR 48.2 37.4 60.8 45.1 66% 46 29.66 0.0
05 07:35 N 5 10.00 A Few Clouds FEW023 48.2 37.4 66% 47 29.64 0.0
05 07:15 N 7 10.00 Mostly Cloudy BKN021 46.4 35.6 66% 43 29.64 0.0
05 06:55 N 6 10.00 Partly Cloudy SCT019 SCT110 46.4 37.4 71% 44 29.63 0.0
05 06:35 NW 6 10.00 A Few Clouds FEW110 46.4 37.4 71% 44 29.62 0.0
05 06:15 N 6 10.00 Fair CLR 48.2 37.4 66% 46 29.6 0.0
05 05:56 N 9 10.00 Partly Cloudy SCT110 48.2 37.4 66% 45 29.6 0.0
05 05:35 N 13 10.00 Mostly Cloudy BKN120 50 39.2 67% 46 29.58 0.0
05 05:15 W 8 10.00 Partly Cloudy SCT120 53.6 39.2 58% 29.55 0.0
05 04:55 W 8 10.00 Partly Cloudy SCT110 53.6 41 63% 29.54 0.0
05 04:35 W 8 10.00 Partly Cloudy SCT110 53.6 41 63% 29.54 0.0
05 04:15 W 7 10.00 Mostly Cloudy BKN110 55.4 41 59% 29.52 0.0
05 03:55 W 8 10.00 Mostly Cloudy BKN100 55.4 42.8 63% 29.52 0.0
05 03:36 W 8 10.00 Overcast OVC100 57.2 42.8 59% 29.52 0.0
05 03:15 W 9 10.00 Mostly Cloudy BKN100 57.2 44.6 63% 29.52 0.0
05 02:55 W 8 10.00 Fair CLR 59 44.6 59% 29.5 0.0
05 02:35 W 10 10.00 Fair CLR 59 46.4 63% 29.5 0.0
05 02:15 W 8 10.00 Fair CLR 60.8 50 68% 29.49 0.0
05 01:55 SW 7 10.00 Fair CLR 60.8 50 71.1 60.8 68% 29.49 0.0
05 01:35 SW 10 10.00 Fair CLR 60.8 50 68% 29.49 0.0
05 01:16 SW 10 G 18 10.00 Fair CLR 62.6 50 64% 29.48 0.0
05 00:55 SW 16 G 23 10.00 Partly Cloudy SCT080 SCT090 62.6 50 64% 29.48 0.0
05 00:35 SW 13 G 20 10.00 Partly Cloudy SCT080 SCT095 64.4 50 60% 29.48 0.0
05 00:15 W 16 10.00 Fair CLR 64.4 50 60% 29.48 0.0
04 23:55 W 13 G 21 10.00 A Few Clouds FEW120 64.4 51.8 64% 29.46 0.0
04 23:35 SW 12 10.00 Mostly Cloudy SCT080 BKN120 64.4 53.6 68% 29.45 0.0
04 23:15 SW 15 G 22 10.00 Light Rain BKN080 BKN100 64.4 53.6 68% 29.44 0.0
04 22:56 SW 21 G 36 10.00 A Few Clouds and Breezy FEW100 68 48.2 49% 29.45 0.0
04 22:35 SW 14 G 24 10.00 Fair CLR 68 50 53% 29.43 0.0
04 22:15 S 16 G 22 10.00 A Few Clouds FEW100 66.2 46.4 49% 29.42 0.0
04 21:55 SW 10 10.00 Fair CLR 66.2 44.6 46% 29.43 0.0
04 21:35 SW 8 10.00 Fair CLR 64.4 42.8 46% 29.42 0.0
04 21:15 SW 10 10.00 Fair CLR 66.2 42.8 43% 29.42 0.0
04 20:55 SW 10 10.00 Fair CLR 66.2 42.8 43% 29.42 0.0
04 20:36 SW 9 10.00 Fair CLR 68 41 38% 29.42 0.0
04 20:15 SW 12 10.00 Fair CLR 69.8 41 35% 29.42 0.0
04 19:55 SW 13 G 18 10.00 Fair CLR 71.6 39.2 75.4 70.9 31% 29.42 0.0
04 19:35 SW 12 10.00 Fair CLR 71.6 39.2 31% 29.43 0.0
04 19:15 SW 12 G 24 10.00 Fair CLR 71.6 39.2 31% 29.44 0.0
04 18:55 SW 14 G 21 10.00 Fair CLR 71.6 39.2 31% 29.45 0.0
04 18:35 W 16 G 22 10.00 Fair CLR 73.4 37.4 27% 29.46 0.0
04 17:55 SW 20 G 28 10.00 Fair CLR 73.4 37.4 27% 29.47 0.0
04 17:35 SW 22 G 30 10.00 Fair and Breezy CLR 73.4 37.4 27% 29.47 0.0
04 17:15 SW 20 G 30 10.00 Fair CLR 75.2 35.6 24% 76 29.48 0.0
04 16:55 W 20 G 28 10.00 Fair CLR 73.4 33.8 23% 29.48 0.0
04 16:35 W 20 G 30 10.00 Fair CLR 75.2 33.8 22% 76 29.48 0.0
04 16:15 W 21 G 30 10.00 Fair and Breezy CLR 73.4 33.8 23% 29.49 0.0
04 15:56 W 20 G 29 10.00 Fair CLR 75.2 33.8 22% 76 29.49 0.0
04 15:35 W 21 G 36 10.00 Fair and Breezy CLR 73.4 32 22% 29.49 0.0
04 15:15 W 21 G 32 10.00 Fair and Breezy CLR 73.4 32 22% 29.49 0.0
04 14:55 SW 17 G 31 10.00 Fair CLR 73.4 32 22% 29.5 0.0
04 14:35 W 21 G 33 10.00 Fair and Breezy CLR 75.2 33.8 22% 76 29.5 0.0
Date Time (edt) Wind (mph) Vis. (mi.) Weather Sky Cond. Air Dwpt Max. Min. Relative Humidity Wind Chill (°F) Heat Index (°F) altimeter (in) sea level (mb) 1 hr 3 hr 6 hr
6 hour
Temperature (ºF) Pressure Precipitation (in)